sensor_id;sensor_type;location;lat;lon;timestamp;pressure;altitude;pressure_sealevel;temperature;humidity
36062;BME280;22123;52.412;20.970;2022-12-18T00:01:17;102102.19;;;-6.23;100.00
36062;BME280;22123;52.412;20.970;2022-12-18T00:03:43;102102.19;;;-6.23;100.00
36062;BME280;22123;52.412;20.970;2022-12-18T00:06:08;102103.94;;;-6.22;100.00
36062;BME280;22123;52.412;20.970;2022-12-18T00:08:48;102104.78;;;-6.21;100.00
36062;BME280;22123;52.412;20.970;2022-12-18T00:11:15;102107.44;;;-6.20;100.00
36062;BME280;22123;52.412;20.970;2022-12-18T00:13:41;102110.03;;;-6.18;100.00
36062;BME280;22123;52.412;20.970;2022-12-18T00:16:09;102104.78;;;-6.18;100.00
36062;BME280;22123;52.412;20.970;2022-12-18T00:18:35;102115.25;;;-6.18;100.00
36062;BME280;22123;52.412;20.970;2022-12-18T00:21:03;102123.13;;;-6.18;100.00
36062;BME280;22123;52.412;20.970;2022-12-18T00:23:29;102126.59;;;-6.18;100.00
36062;BME280;22123;52.412;20.970;2022-12-18T00:26:02;102130.97;;;-6.17;100.00
36062;BME280;22123;52.412;20.970;2022-12-18T00:28:28;102130.97;;;-6.17;100.00
36062;BME280;22123;52.412;20.970;2022-12-18T00:31:10;102129.19;;;-6.16;100.00
36062;BME280;22123;52.412;20.970;2022-12-18T00:33:36;102130.91;;;-6.14;100.00
36062;BME280;22123;52.412;20.970;2022-12-18T00:36:12;102130.88;;;-6.12;100.00
36062;BME280;22123;52.412;20.970;2022-12-18T00:38:38;102139.63;;;-6.13;100.00
36062;BME280;22123;52.412;20.970;2022-12-18T00:41:04;102145.75;;;-6.11;100.00
36062;BME280;22123;52.412;20.970;2022-12-18T00:43:29;102148.38;;;-6.11;100.00
36062;BME280;22123;52.412;20.970;2022-12-18T00:45:55;102143.97;;;-6.10;100.00
36062;BME280;22123;52.412;20.970;2022-12-18T00:48:21;102149.19;;;-6.09;100.00
36062;BME280;22123;52.412;20.970;2022-12-18T00:50:50;102150.03;;;-6.07;100.00
36062;BME280;22123;52.412;20.970;2022-12-18T00:53:15;102158.75;;;-6.05;100.00
36062;BME280;22123;52.412;20.970;2022-12-18T00:55:41;102156.09;;;-6.03;100.00
36062;BME280;22123;52.412;20.970;2022-12-18T00:58:08;102169.19;;;-6.02;100.00
36062;BME280;22123;52.412;20.970;2022-12-18T01:00:33;102168.31;;;-6.01;100.00
36062;BME280;22123;52.412;20.970;2022-12-18T01:02:59;102167.38;;;-6.00;100.00
36062;BME280;22123;52.412;20.970;2022-12-18T01:05:25;102166.53;;;-6.00;100.00
36062;BME280;22123;52.412;20.970;2022-12-18T01:07:51;102179.63;;;-5.99;100.00
36062;BME280;22123;52.412;20.970;2022-12-18T01:10:16;102177.03;;;-6.00;100.00
36062;BME280;22123;52.412;20.970;2022-12-18T01:12:42;102175.25;;;-6.00;100.00
36062;BME280;22123;52.412;20.970;2022-12-18T01:15:09;102177.84;;;-5.98;100.00
36062;BME280;22123;52.412;20.970;2022-12-18T01:17:35;102181.38;;;-5.98;100.00
36062;BME280;22123;52.412;20.970;2022-12-18T01:20:00;102180.44;;;-5.97;100.00
36062;BME280;22123;52.412;20.970;2022-12-18T01:22:26;102183.06;;;-5.95;100.00
36062;BME280;22123;52.412;20.970;2022-12-18T01:24:52;102189.19;;;-5.96;100.00
36062;BME280;22123;52.412;20.970;2022-12-18T01:27:17;102189.19;;;-5.96;100.00
36062;BME280;22123;52.412;20.970;2022-12-18T01:29:43;102192.75;;;-5.99;100.00
36062;BME280;22123;52.412;20.970;2022-12-18T01:32:09;102204.09;;;-6.00;100.00
36062;BME280;22123;52.412;20.970;2022-12-18T01:34:37;102208.53;;;-6.02;100.00
36062;BME280;22123;52.412;20.970;2022-12-18T01:37:04;102212.03;;;-6.03;100.00
36062;BME280;22123;52.412;20.970;2022-12-18T01:39:30;102211.22;;;-6.06;100.00
36062;BME280;22123;52.412;20.970;2022-12-18T01:41:55;102224.34;;;-6.08;100.00
36062;BME280;22123;52.412;20.970;2022-12-18T01:47:05;102224.41;;;-6.11;100.00
36062;BME280;22123;52.412;20.970;2022-12-18T01:49:44;102236.63;;;-6.12;100.00
36062;BME280;22123;52.412;20.970;2022-12-18T01:52:09;102235.78;;;-6.12;100.00
36062;BME280;22123;52.412;20.970;2022-12-18T01:54:35;102243.63;;;-6.12;100.00
36062;BME280;22123;52.412;20.970;2022-12-18T01:57:01;102247.06;;;-6.08;100.00
36062;BME280;22123;52.412;20.970;2022-12-18T01:59:27;102252.31;;;-6.08;100.00
36062;BME280;22123;52.412;20.970;2022-12-18T02:01:53;102252.31;;;-6.08;100.00
36062;BME280;22123;52.412;20.970;2022-12-18T02:04:20;102259.28;;;-6.06;100.00
36062;BME280;22123;52.412;20.970;2022-12-18T02:06:46;102252.28;;;-6.07;100.00
36062;BME280;22123;52.412;20.970;2022-12-18T02:09:20;102259.31;;;-6.07;100.00
36062;BME280;22123;52.412;20.970;2022-12-18T02:11:51;102263.69;;;-6.08;100.00
36062;BME280;22123;52.412;20.970;2022-12-18T02:19:44;102272.47;;;-6.12;100.00
36062;BME280;22123;52.412;20.970;2022-12-18T02:27:18;102278.59;;;-6.13;100.00
36062;BME280;22123;52.412;20.970;2022-12-18T02:29:48;102284.72;;;-6.14;100.00
36062;BME280;22123;52.412;20.970;2022-12-18T02:32:18;102288.25;;;-6.15;100.00
36062;BME280;22123;52.412;20.970;2022-12-18T02:34:45;102296.16;;;-6.18;100.00
36062;BME280;22123;52.412;20.970;2022-12-18T02:37:12;102291.81;;;-6.21;100.00
36062;BME280;22123;52.412;20.970;2022-12-18T02:39:40;102292.72;;;-6.23;100.00
36062;BME280;22123;52.412;20.970;2022-12-18T02:42:07;102292.78;;;-6.26;100.00
36062;BME280;22123;52.412;20.970;2022-12-18T02:44:33;102300.66;;;-6.28;100.00
36062;BME280;22123;52.412;20.970;2022-12-18T02:46:58;102304.19;;;-6.31;100.00
36062;BME280;22123;52.412;20.970;2022-12-18T02:51:53;102312.94;;;-6.33;100.00
36062;BME280;22123;52.412;20.970;2022-12-18T02:56:50;102313.84;;;-6.34;100.00
36062;BME280;22123;52.412;20.970;2022-12-18T02:59:18;102326.94;;;-6.36;100.00
36062;BME280;22123;52.412;20.970;2022-12-18T03:04:19;102339.22;;;-6.38;100.00
36062;BME280;22123;52.412;20.970;2022-12-18T03:06:54;102344.47;;;-6.39;100.00
36062;BME280;22123;52.412;20.970;2022-12-18T03:09:22;102346.22;;;-6.40;100.00
36062;BME280;22123;52.412;20.970;2022-12-18T03:11:54;102345.31;;;-6.39;100.00
36062;BME280;22123;52.412;20.970;2022-12-18T03:14:36;102354.09;;;-6.40;100.00
36062;BME280;22123;52.412;20.970;2022-12-18T03:17:05;102349.72;;;-6.39;100.00
36062;BME280;22123;52.412;20.970;2022-12-18T03:19:32;102349.72;;;-6.41;100.00
36062;BME280;22123;52.412;20.970;2022-12-18T03:21:58;102355.81;;;-6.40;100.00
36062;BME280;22123;52.412;20.970;2022-12-18T03:24:26;102367.19;;;-6.40;100.00
36062;BME280;22123;52.412;20.970;2022-12-18T03:26:55;102366.31;;;-6.40;100.00
36062;BME280;22123;52.412;20.970;2022-12-18T03:31:59;102362.84;;;-6.41;100.00
36062;BME280;22123;52.412;20.970;2022-12-18T03:34:29;102379.41;;;-6.40;100.00
36062;BME280;22123;52.412;20.970;2022-12-18T03:36:56;102382.94;;;-6.40;100.00
36062;BME280;22123;52.412;20.970;2022-12-18T03:39:23;102383.81;;;-6.42;100.00
36062;BME280;22123;52.412;20.970;2022-12-18T03:42:01;102391.69;;;-6.44;100.00
36062;BME280;22123;52.412;20.970;2022-12-18T03:52:42;102395.28;;;-6.51;100.00
36062;BME280;22123;52.412;20.970;2022-12-18T03:55:10;102395.31;;;-6.54;100.00
36062;BME280;22123;52.412;20.970;2022-12-18T03:57:36;102396.19;;;-6.55;100.00
36062;BME280;22123;52.412;20.970;2022-12-18T04:00:12;102406.66;;;-6.55;100.00
36062;BME280;22123;52.412;20.970;2022-12-18T04:02:39;102412.78;;;-6.56;100.00
36062;BME280;22123;52.412;20.970;2022-12-18T04:05:07;102409.31;;;-6.58;100.00
36062;BME280;22123;52.412;20.970;2022-12-18T04:07:33;102413.69;;;-6.59;100.00
36062;BME280;22123;52.412;20.970;2022-12-18T04:10:00;102413.69;;;-6.60;100.00
36062;BME280;22123;52.412;20.970;2022-12-18T04:12:28;102418.91;;;-6.60;100.00
36062;BME280;22123;52.412;20.970;2022-12-18T04:14:54;102418.03;;;-6.59;100.00
36062;BME280;22123;52.412;20.970;2022-12-18T04:17:19;102415.44;;;-6.61;100.00
36062;BME280;22123;52.412;20.970;2022-12-18T04:19:45;102418.94;;;-6.64;100.00
36062;BME280;22123;52.412;20.970;2022-12-18T04:22:11;102432.06;;;-6.64;100.00
36062;BME280;22123;52.412;20.970;2022-12-18T04:24:36;102432.06;;;-6.65;100.00
36062;BME280;22123;52.412;20.970;2022-12-18T04:27:02;102440.84;;;-6.66;100.00
36062;BME280;22123;52.412;20.970;2022-12-18T04:29:28;102442.56;;;-6.68;100.00
36062;BME280;22123;52.412;20.970;2022-12-18T04:31:54;102440.84;;;-6.71;100.00
36062;BME280;22123;52.412;20.970;2022-12-18T04:34:19;102460.13;;;-6.78;100.00
36062;BME280;22123;52.412;20.970;2022-12-18T04:36:45;102449.72;;;-6.86;100.00
36062;BME280;22123;52.412;20.970;2022-12-18T04:39:19;102458.50;;;-6.94;100.00
36062;BME280;22123;52.412;20.970;2022-12-18T04:41:44;102462.91;;;-7.01;100.00
36062;BME280;22123;52.412;20.970;2022-12-18T04:44:10;102466.41;;;-7.02;100.00
36062;BME280;22123;52.412;20.970;2022-12-18T04:46:36;102469.91;;;-7.05;100.00
36062;BME280;22123;52.412;20.970;2022-12-18T04:49:02;102465.53;;;-7.03;100.00
36062;BME280;22123;52.412;20.970;2022-12-18T04:51:27;102474.25;;;-7.01;100.00
36062;BME280;22123;52.412;20.970;2022-12-18T04:53:53;102479.50;;;-7.01;100.00
36062;BME280;22123;52.412;20.970;2022-12-18T04:56:19;102489.97;;;-7.01;100.00
36062;BME280;22123;52.412;20.970;2022-12-18T04:58:44;102486.47;;;-7.00;100.00
36062;BME280;22123;52.412;20.970;2022-12-18T05:01:11;102489.06;;;-7.00;100.00
36062;BME280;22123;52.412;20.970;2022-12-18T05:03:37;102488.19;;;-6.99;100.00
36062;BME280;22123;52.412;20.970;2022-12-18T05:06:03;102498.69;;;-6.99;100.00
36062;BME280;22123;52.412;20.970;2022-12-18T05:08:29;102490.78;;;-6.95;100.00
36062;BME280;22123;52.412;20.970;2022-12-18T05:11:13;102494.28;;;-6.93;100.00
36062;BME280;22123;52.412;20.970;2022-12-18T05:13:39;102501.25;;;-6.92;100.00
36062;BME280;22123;52.412;20.970;2022-12-18T05:16:05;102500.38;;;-6.91;100.00
36062;BME280;22123;52.412;20.970;2022-12-18T05:18:31;102508.25;;;-6.93;100.00
36062;BME280;22123;52.412;20.970;2022-12-18T05:20:57;102503.88;;;-6.95;100.00
36062;BME280;22123;52.412;20.970;2022-12-18T05:23:23;102512.66;;;-6.96;100.00
36062;BME280;22123;52.412;20.970;2022-12-18T05:25:53;102511.78;;;-7.02;100.00
36062;BME280;22123;52.412;20.970;2022-12-18T05:28:19;102519.66;;;-7.05;100.00
36062;BME280;22123;52.412;20.970;2022-12-18T05:30:48;102521.41;;;-7.08;100.00
36062;BME280;22123;52.412;20.970;2022-12-18T05:33:14;102525.81;;;-7.12;100.00
36062;BME280;22123;52.412;20.970;2022-12-18T05:35:40;102534.56;;;-7.18;100.00
36062;BME280;22123;52.412;20.970;2022-12-18T05:38:05;102536.34;;;-7.27;100.00
36062;BME280;22123;52.412;20.970;2022-12-18T05:40:31;102546.00;;;-7.36;100.00
36062;BME280;22123;52.412;20.970;2022-12-18T05:42:57;102552.13;;;-7.40;100.00
36062;BME280;22123;52.412;20.970;2022-12-18T05:45:22;102549.53;;;-7.49;100.00
36062;BME280;22123;52.412;20.970;2022-12-18T05:47:48;102556.53;;;-7.57;100.00
36062;BME280;22123;52.412;20.970;2022-12-18T05:50:14;102559.16;;;-7.62;100.00
36062;BME280;22123;52.412;20.970;2022-12-18T05:52:39;102561.78;;;-7.63;100.00
36062;BME280;22123;52.412;20.970;2022-12-18T05:55:05;102555.69;;;-7.64;100.00
36062;BME280;22123;52.412;20.970;2022-12-18T05:57:31;102561.78;;;-7.63;100.00
36062;BME280;22123;52.412;20.970;2022-12-18T05:59:56;102556.53;;;-7.65;100.00
36062;BME280;22123;52.412;20.970;2022-12-18T06:02:22;102576.63;;;-7.65;100.00
36062;BME280;22123;52.412;20.970;2022-12-18T06:04:48;102577.47;;;-7.66;100.00
36062;BME280;22123;52.412;20.970;2022-12-18T06:07:13;102576.63;;;-7.70;100.00
36062;BME280;22123;52.412;20.970;2022-12-18T06:09:39;102586.22;;;-7.74;100.00
36062;BME280;22123;52.412;20.970;2022-12-18T06:12:05;102585.34;;;-7.76;100.00
36062;BME280;22123;52.412;20.970;2022-12-18T06:14:31;102588.81;;;-7.72;100.00
36062;BME280;22123;52.412;20.970;2022-12-18T06:16:56;102583.56;;;-7.68;100.00
36062;BME280;22123;52.412;20.970;2022-12-18T06:19:22;102588.81;;;-7.60;100.00
36062;BME280;22123;52.412;20.970;2022-12-18T06:21:47;102594.03;;;-7.54;100.00
36062;BME280;22123;52.412;20.970;2022-12-18T06:24:13;102598.38;;;-7.49;100.00
36062;BME280;22123;52.412;20.970;2022-12-18T06:26:39;102596.59;;;-7.44;100.00
36062;BME280;22123;52.412;20.970;2022-12-18T06:29:05;102603.56;;;-7.40;100.00
36062;BME280;22123;52.412;20.970;2022-12-18T06:31:30;102607.06;;;-7.35;100.00
36062;BME280;22123;52.412;20.970;2022-12-18T06:33:56;102608.81;;;-7.32;100.00
36062;BME280;22123;52.412;20.970;2022-12-18T06:36:22;102618.41;;;-7.28;100.00
36062;BME280;22123;52.412;20.970;2022-12-18T06:38:47;102621.00;;;-7.25;100.00
36062;BME280;22123;52.412;20.970;2022-12-18T06:41:14;102621.00;;;-7.25;100.00
36062;BME280;22123;52.412;20.970;2022-12-18T06:43:41;102635.78;;;-7.23;100.00
36062;BME280;22123;52.412;20.970;2022-12-18T06:46:06;102630.59;;;-7.20;100.00
36062;BME280;22123;52.412;20.970;2022-12-18T06:48:32;102629.69;;;-7.20;100.00
36062;BME280;22123;52.412;20.970;2022-12-18T06:50:58;102638.41;;;-7.21;100.00
36062;BME280;22123;52.412;20.970;2022-12-18T06:53:24;102642.78;;;-7.22;100.00
36062;BME280;22123;52.412;20.970;2022-12-18T06:55:49;102648.00;;;-7.20;100.00
36062;BME280;22123;52.412;20.970;2022-12-18T06:58:15;102653.25;;;-7.20;100.00
36062;BME280;22123;52.412;20.970;2022-12-18T07:00:41;102651.53;;;-7.20;100.00
36062;BME280;22123;52.412;20.970;2022-12-18T07:03:07;102653.22;;;-7.16;100.00
36062;BME280;22123;52.412;20.970;2022-12-18T07:05:32;102659.34;;;-7.12;100.00
36062;BME280;22123;52.412;20.970;2022-12-18T07:07:58;102655.84;;;-7.08;100.00
36062;BME280;22123;52.412;20.970;2022-12-18T07:10:24;102659.31;;;-7.03;100.00
36062;BME280;22123;52.412;20.970;2022-12-18T07:12:49;102665.44;;;-7.02;100.00
36062;BME280;22123;52.412;20.970;2022-12-18T07:15:15;102668.91;;;-6.99;100.00
36062;BME280;22123;52.412;20.970;2022-12-18T07:17:41;102675.88;;;-6.94;100.00
36062;BME280;22123;52.412;20.970;2022-12-18T07:20:12;102676.72;;;-6.92;100.00
36062;BME280;22123;52.412;20.970;2022-12-18T07:22:38;102682.84;;;-6.90;100.00
36062;BME280;22123;52.412;20.970;2022-12-18T07:25:04;102686.31;;;-6.88;100.00
36062;BME280;22123;52.412;20.970;2022-12-18T07:27:30;102694.16;;;-6.85;100.00
36062;BME280;22123;52.412;20.970;2022-12-18T07:29:55;102692.44;;;-6.86;100.00
36062;BME280;22123;52.412;20.970;2022-12-18T07:32:21;102698.53;;;-6.84;100.00
36062;BME280;22123;52.412;20.970;2022-12-18T07:34:46;102709.88;;;-6.84;100.00
36062;BME280;22123;52.412;20.970;2022-12-18T07:37:12;102713.38;;;-6.83;100.00
36062;BME280;22123;52.412;20.970;2022-12-18T07:39:38;102718.59;;;-6.80;100.00
36062;BME280;22123;52.412;20.970;2022-12-18T07:42:03;102721.22;;;-6.78;100.00
36062;BME280;22123;52.412;20.970;2022-12-18T07:44:29;102712.50;;;-6.79;100.00
36062;BME280;22123;52.412;20.970;2022-12-18T07:46:55;102725.56;;;-6.76;100.00
36062;BME280;22123;52.412;20.970;2022-12-18T07:49:20;102733.41;;;-6.70;100.00
36062;BME280;22123;52.412;20.970;2022-12-18T07:51:46;102730.75;;;-6.64;100.00
36062;BME280;22123;52.412;20.970;2022-12-18T07:54:12;102733.38;;;-6.57;100.00
36062;BME280;22123;52.412;20.970;2022-12-18T07:56:37;102735.09;;;-6.55;100.00
36062;BME280;22123;52.412;20.970;2022-12-18T07:59:03;102742.09;;;-6.57;100.00
36062;BME280;22123;52.412;20.970;2022-12-18T08:01:28;102737.72;;;-6.56;100.00
36062;BME280;22123;52.412;20.970;2022-12-18T08:03:54;102747.31;;;-6.54;100.00
36062;BME280;22123;52.412;20.970;2022-12-18T08:06:20;102742.06;;;-6.49;100.00
36062;BME280;22123;52.412;20.970;2022-12-18T08:08:45;102757.78;;;-6.43;100.00
36062;BME280;22123;52.412;20.970;2022-12-18T08:11:11;102752.50;;;-6.35;100.00
36062;BME280;22123;52.412;20.970;2022-12-18T08:13:37;102754.22;;;-6.31;100.00
36062;BME280;22123;52.412;20.970;2022-12-18T08:16:03;102768.16;;;-6.26;100.00
36062;BME280;22123;52.412;20.970;2022-12-18T08:18:29;102769.03;;;-6.22;100.00
36062;BME280;22123;52.412;20.970;2022-12-18T08:21:06;102769.88;;;-6.19;100.00
36062;BME280;22123;52.412;20.970;2022-12-18T08:23:32;102767.22;;;-6.13;100.00
36062;BME280;22123;52.412;20.970;2022-12-18T08:25:58;102768.09;;;-6.09;100.00
36062;BME280;22123;52.412;20.970;2022-12-18T08:28:23;102768.94;;;-6.04;100.00
36062;BME280;22123;52.412;20.970;2022-12-18T08:30:51;102771.56;;;-6.02;100.00
36062;BME280;22123;52.412;20.970;2022-12-18T08:33:17;102780.28;;;-6.02;100.00
36062;BME280;22123;52.412;20.970;2022-12-18T08:35:42;102771.53;;;-6.01;100.00
36062;BME280;22123;52.412;20.970;2022-12-18T08:38:08;102789.84;;;-5.96;100.00
36062;BME280;22123;52.412;20.970;2022-12-18T08:40:34;102774.09;;;-5.95;100.00
36062;BME280;22123;52.412;20.970;2022-12-18T08:42:59;102790.69;;;-5.94;100.00
36062;BME280;22123;52.412;20.970;2022-12-18T08:45:26;102787.16;;;-5.90;100.00
36062;BME280;22123;52.412;20.970;2022-12-18T08:47:52;102788.91;;;-5.87;100.00
36062;BME280;22123;52.412;20.970;2022-12-18T08:50:18;102802.91;;;-5.88;100.00
36062;BME280;22123;52.412;20.970;2022-12-18T08:52:43;102792.38;;;-5.87;100.00
36062;BME280;22123;52.412;20.970;2022-12-18T08:55:09;102799.38;;;-5.83;100.00
36062;BME280;22123;52.412;20.970;2022-12-18T08:57:35;102808.13;;;-5.85;100.00
36062;BME280;22123;52.412;20.970;2022-12-18T09:00:00;102807.25;;;-5.84;100.00
36062;BME280;22123;52.412;20.970;2022-12-18T09:02:26;102809.00;;;-5.82;100.00
36062;BME280;22123;52.412;20.970;2022-12-18T09:04:52;102808.94;;;-5.76;100.00
36062;BME280;22123;52.412;20.970;2022-12-18T09:07:17;102804.53;;;-5.66;100.00
36062;BME280;22123;52.412;20.970;2022-12-18T09:09:43;102800.09;;;-5.62;100.00
36062;BME280;22123;52.412;20.970;2022-12-18T09:12:09;102802.72;;;-5.56;100.00
36062;BME280;22123;52.412;20.970;2022-12-18T09:14:35;102803.53;;;-5.52;100.00
36062;BME280;22123;52.412;20.970;2022-12-18T09:17:00;102804.41;;;-5.50;100.00
36062;BME280;22123;52.412;20.970;2022-12-18T09:19:26;102805.25;;;-5.45;100.00
36062;BME280;22123;52.412;20.970;2022-12-18T09:21:52;102811.34;;;-5.43;100.00
36062;BME280;22123;52.412;20.970;2022-12-18T09:24:17;102817.47;;;-5.41;100.00
36062;BME280;22123;52.412;20.970;2022-12-18T09:26:43;102811.31;;;-5.38;100.00
36062;BME280;22123;52.412;20.970;2022-12-18T09:29:09;102818.28;;;-5.33;100.00
36062;BME280;22123;52.412;20.970;2022-12-18T09:31:35;102808.59;;;-5.26;100.00
36062;BME280;22123;52.412;20.970;2022-12-18T09:34:00;102817.28;;;-5.19;100.00
36062;BME280;22123;52.412;20.970;2022-12-18T09:36:26;102813.78;;;-5.18;100.00
36062;BME280;22123;52.412;20.970;2022-12-18T09:38:52;102815.50;;;-5.17;100.00
36062;BME280;22123;52.412;20.970;2022-12-18T09:43:47;102823.44;;;-5.22;100.00
36062;BME280;22123;52.412;20.970;2022-12-18T09:46:28;102829.59;;;-5.28;100.00
36062;BME280;22123;52.412;20.970;2022-12-18T09:48:56;102832.25;;;-5.29;100.00
36062;BME280;22123;52.412;20.970;2022-12-18T09:51:28;102831.41;;;-5.31;100.00
36062;BME280;22123;52.412;20.970;2022-12-18T09:53:56;102831.41;;;-5.36;100.00
36062;BME280;22123;52.412;20.970;2022-12-18T09:56:26;102830.50;;;-5.32;100.00
36062;BME280;22123;52.412;20.970;2022-12-18T09:59:00;102830.50;;;-5.26;100.00
36062;BME280;22123;52.412;20.970;2022-12-18T10:01:27;102833.06;;;-5.19;100.00
36062;BME280;22123;52.412;20.970;2022-12-18T10:03:53;102830.38;;;-5.13;100.00
36062;BME280;22123;52.412;20.970;2022-12-18T10:06:23;102838.19;;;-5.07;100.00
36062;BME280;22123;52.412;20.970;2022-12-18T10:09:05;102840.81;;;-5.09;100.00
36062;BME280;22123;52.412;20.970;2022-12-18T10:11:37;102839.13;;;-5.11;100.00
36062;BME280;22123;52.412;20.970;2022-12-18T10:27:22;102839.13;;;-5.16;100.00
36062;BME280;22123;52.412;20.970;2022-12-18T10:29:48;102848.75;;;-5.13;100.00
36062;BME280;22123;52.412;20.970;2022-12-18T10:32:27;102845.19;;;-5.06;100.00
36062;BME280;22123;52.412;20.970;2022-12-18T10:34:54;102839.00;;;-4.99;100.00
36062;BME280;22123;52.412;20.970;2022-12-18T10:37:23;102834.53;;;-4.89;100.00
36062;BME280;22123;52.412;20.970;2022-12-18T10:42:33;102840.66;;;-4.89;100.00
36062;BME280;22123;52.412;20.970;2022-12-18T10:45:17;102837.16;;;-4.87;100.00
36062;BME280;22123;52.412;20.970;2022-12-18T10:47:43;102833.59;;;-4.82;100.00
36062;BME280;22123;52.412;20.970;2022-12-18T10:50:18;102837.94;;;-4.76;100.00
36062;BME280;22123;52.412;20.970;2022-12-18T10:52:44;102840.53;;;-4.75;100.00
36062;BME280;22123;52.412;20.970;2022-12-18T10:55:17;102845.78;;;-4.75;100.00
36062;BME280;22123;52.412;20.970;2022-12-18T10:57:43;102834.31;;;-4.66;100.00
36062;BME280;22123;52.412;20.970;2022-12-18T11:00:25;102832.50;;;-4.61;100.00
36062;BME280;22123;52.412;20.970;2022-12-18T11:02:51;102838.69;;;-4.65;100.00
36062;BME280;22123;52.412;20.970;2022-12-18T11:05:25;102842.19;;;-4.64;100.00
36062;BME280;22123;52.412;20.970;2022-12-18T11:07:51;102839.53;;;-4.63;100.00
36062;BME280;22123;52.412;20.970;2022-12-18T11:10:17;102844.78;;;-4.61;100.00
36062;BME280;22123;52.412;20.970;2022-12-18T11:12:43;102849.19;;;-4.62;100.00
36062;BME280;22123;52.412;20.970;2022-12-18T11:18:04;102845.56;;;-4.53;100.00
36062;BME280;22123;52.412;20.970;2022-12-18T11:20:34;102841.13;;;-4.49;100.00
36062;BME280;22123;52.412;20.970;2022-12-18T11:23:01;102843.72;;;-4.46;100.00
36062;BME280;22123;52.412;20.970;2022-12-18T11:25:28;102850.69;;;-4.42;100.00
36062;BME280;22123;52.412;20.970;2022-12-18T11:28:01;102851.53;;;-4.37;100.00
36062;BME280;22123;52.412;20.970;2022-12-18T11:30:31;102853.22;;;-4.34;100.00
36062;BME280;22123;52.412;20.970;2022-12-18T11:33:16;102848.84;;;-4.32;100.00
36062;BME280;22123;52.412;20.970;2022-12-18T11:35:49;102838.38;;;-4.35;100.00
36062;BME280;22123;52.412;20.970;2022-12-18T11:38:26;102846.25;;;-4.34;100.00
36062;BME280;22123;52.412;20.970;2022-12-18T11:40:58;102854.16;;;-4.35;100.00
36062;BME280;22123;52.412;20.970;2022-12-18T11:43:33;102848.94;;;-4.39;100.00
36062;BME280;22123;52.412;20.970;2022-12-18T11:46:08;102863.84;;;-4.41;100.00
36062;BME280;22123;52.412;20.970;2022-12-18T11:48:43;102855.97;;;-4.44;100.00
36062;BME280;22123;52.412;20.970;2022-12-18T11:51:13;102854.22;;;-4.45;100.00
36062;BME280;22123;52.412;20.970;2022-12-18T11:53:40;102858.59;;;-4.42;100.00
36062;BME280;22123;52.412;20.970;2022-12-18T12:04:19;102865.63;;;-4.44;100.00
36062;BME280;22123;52.412;20.970;2022-12-18T12:17:04;102856.66;;;-4.26;100.00
36062;BME280;22123;52.412;20.970;2022-12-18T12:19:36;102856.63;;;-4.23;100.00
36062;BME280;22123;52.412;20.970;2022-12-18T12:24:44;102858.44;;;-4.27;100.00
36062;BME280;22123;52.412;20.970;2022-12-18T12:27:24;102870.69;;;-4.26;100.00
36062;BME280;22123;52.412;20.970;2022-12-18T12:39:59;102885.75;;;-4.40;100.00
36062;BME280;22123;52.412;20.970;2022-12-18T12:42:31;102898.06;;;-4.44;100.00
36062;BME280;22123;52.412;20.970;2022-12-18T12:44:58;102894.59;;;-4.47;100.00
36062;BME280;22123;52.412;20.970;2022-12-18T12:47:28;102885.84;;;-4.51;100.00
36062;BME280;22123;52.412;20.970;2022-12-18T12:49:55;102897.22;;;-4.47;100.00
36062;BME280;22123;52.412;20.970;2022-12-18T12:52:27;102901.56;;;-4.45;100.00
36062;BME280;22123;52.412;20.970;2022-12-18T12:54:53;102901.56;;;-4.46;100.00
36062;BME280;22123;52.412;20.970;2022-12-18T12:57:37;102914.81;;;-4.52;100.00
36062;BME280;22123;52.412;20.970;2022-12-18T13:00:14;102922.69;;;-4.54;100.00
36062;BME280;22123;52.412;20.970;2022-12-18T13:05:26;102934.22;;;-4.66;100.00
36062;BME280;22123;52.412;20.970;2022-12-18T13:08:09;102934.19;;;-4.64;100.00
36062;BME280;22123;52.412;20.970;2022-12-18T13:10:39;102940.28;;;-4.62;100.00
36062;BME280;22123;52.412;20.970;2022-12-18T13:15:44;102936.81;;;-4.63;100.00
36062;BME280;22123;52.412;20.970;2022-12-18T13:25:48;102942.94;;;-4.64;100.00
36062;BME280;22123;52.412;20.970;2022-12-18T13:28:18;102945.56;;;-4.64;100.00
36062;BME280;22123;52.412;20.970;2022-12-18T13:30:49;102944.72;;;-4.66;100.00
36062;BME280;22123;52.412;20.970;2022-12-18T13:45:48;102963.19;;;-4.72;100.00
36062;BME280;22123;52.412;20.970;2022-12-18T13:48:19;102964.94;;;-4.76;100.00
36062;BME280;22123;52.412;20.970;2022-12-18T13:50:49;102971.97;;;-4.76;100.00
36062;BME280;22123;52.412;20.970;2022-12-18T13:53:21;102974.59;;;-4.76;100.00
36062;BME280;22123;52.412;20.970;2022-12-18T13:55:49;102970.22;;;-4.77;100.00
36062;BME280;22123;52.412;20.970;2022-12-18T13:58:14;102961.47;;;-4.76;100.00
36062;BME280;22123;52.412;20.970;2022-12-18T14:00:41;102964.94;;;-4.76;100.00
36062;BME280;22123;52.412;20.970;2022-12-18T14:03:23;102962.34;;;-4.77;100.00
36062;BME280;22123;52.412;20.970;2022-12-18T14:05:53;102962.34;;;-4.79;100.00
36062;BME280;22123;52.412;20.970;2022-12-18T14:08:20;102965.88;;;-4.81;100.00
36062;BME280;22123;52.412;20.970;2022-12-18T14:10:46;102978.16;;;-4.83;100.00
36062;BME280;22123;52.412;20.970;2022-12-18T14:13:23;102978.19;;;-4.86;100.00
36062;BME280;22123;52.412;20.970;2022-12-18T14:15:49;102972.91;;;-4.90;100.00
36062;BME280;22123;52.412;20.970;2022-12-18T14:20:41;102966.84;;;-4.96;100.00
36062;BME280;22123;52.412;20.970;2022-12-18T14:25:52;102968.59;;;-4.98;100.00
36062;BME280;22123;52.412;20.970;2022-12-18T14:28:18;102960.72;;;-5.00;100.00